createdAt,value
2022-08-17T00:01:51.343Z,2.03
2022-08-17T00:04:23.126Z,1.38
2022-08-17T00:06:51.307Z,1.73
2022-08-17T00:09:19.591Z,1.20
2022-08-17T00:12:40.469Z,1.70
2022-08-17T00:14:37.998Z,1.45
2022-08-17T00:17:06.344Z,1.60
2022-08-17T00:19:35.700Z,1.50
2022-08-17T00:22:31.113Z,1.27
2022-08-17T00:24:54.990Z,2.03
2022-08-17T00:27:23.084Z,1.92
2022-08-17T00:29:51.861Z,2.13
2022-08-17T00:33:15.124Z,1.70
2022-08-17T00:35:12.597Z,1.58
2022-08-17T00:37:40.641Z,1.80
2022-08-17T00:40:10.628Z,1.60
2022-08-17T00:42:39.258Z,1.65
2022-08-17T00:45:09.683Z,1.63
2022-08-17T00:47:38.018Z,1.33
2022-08-17T00:50:07.827Z,1.85
2022-08-17T00:52:43.136Z,1.83
2022-08-17T00:55:11.902Z,2.13
2022-08-17T00:57:43.441Z,2.00
2022-08-17T01:00:19.542Z,1.92
2022-08-17T01:02:49.250Z,1.90
2022-08-17T01:07:50.695Z,1.90
2022-08-17T01:11:00.004Z,1.83
2022-08-17T01:13:12.210Z,2.08
2022-08-17T01:15:46.169Z,2.00
2022-08-17T01:18:15.868Z,1.65
2022-08-17T01:20:48.922Z,1.45
2022-08-17T01:23:21.238Z,2.58
2022-08-17T01:25:50.763Z,1.92
2022-08-17T01:28:52.540Z,1.90
2022-08-17T01:31:08.914Z,2.15
2022-08-17T01:33:37.447Z,1.83
2022-08-17T01:36:07.363Z,2.10
2022-08-17T01:38:38.284Z,1.75
2022-08-17T01:41:09.414Z,1.30
2022-08-17T01:43:44.575Z,1.77
2022-08-17T01:46:16.853Z,1.70
2022-08-17T01:48:47.296Z,1.77
2022-08-17T01:51:16.415Z,2.00
2022-08-17T01:53:50.560Z,1.90
2022-08-17T01:56:22.635Z,1.92
2022-08-17T01:58:51.750Z,1.83
2022-08-17T02:01:22.765Z,2.20
2022-08-17T02:03:59.338Z,1.65
2022-08-17T02:06:31.390Z,2.50
2022-08-17T02:09:16.916Z,2.75
2022-08-17T02:11:46.239Z,2.30
2022-08-17T02:14:14.760Z,2.22
2022-08-17T02:16:43.669Z,2.05
2022-08-17T02:19:16.895Z,2.38
2022-08-17T02:21:47.081Z,2.50
2022-08-17T02:24:59.780Z,1.90
2022-08-17T02:27:09.540Z,2.55
2022-08-17T02:29:38.036Z,2.42
2022-08-17T02:32:06.751Z,2.25
2022-08-17T02:34:34.808Z,2.13
2022-08-17T02:37:02.727Z,2.08
2022-08-17T02:39:32.161Z,1.95
2022-08-17T02:42:04.737Z,2.38
2022-08-17T02:44:39.981Z,2.03
2022-08-17T02:47:10.189Z,2.72
2022-08-17T02:49:38.589Z,2.10
2022-08-17T02:52:08.533Z,2.05
2022-08-17T02:54:41.583Z,1.83
2022-08-17T02:57:10.534Z,1.90
2022-08-17T02:59:38.803Z,2.58
2022-08-17T03:02:08.184Z,2.33
2022-08-17T03:04:36.798Z,2.70
2022-08-17T03:07:05.527Z,1.90
2022-08-17T03:09:34.032Z,1.90
2022-08-17T03:12:08.983Z,2.22
2022-08-17T03:14:41.516Z,2.53
2022-08-17T03:17:11.150Z,2.80
2022-08-17T03:19:45.228Z,2.60
2022-08-17T03:22:36.264Z,2.10
2022-08-17T03:25:01.213Z,2.38
2022-08-17T03:27:31.750Z,2.78
2022-08-17T03:29:59.653Z,2.38
2022-08-17T03:32:27.939Z,1.95
2022-08-17T03:34:59.367Z,2.28
2022-08-17T03:37:27.792Z,2.17
2022-08-17T03:39:55.820Z,1.92
2022-08-17T03:42:32.527Z,2.28
2022-08-17T03:45:03.223Z,1.73
2022-08-17T03:47:48.820Z,2.40
2022-08-17T03:50:35.541Z,3.25
2022-08-17T03:53:23.762Z,2.55
2022-08-17T03:56:09.334Z,2.80
2022-08-17T03:58:37.761Z,2.50
2022-08-17T04:01:07.986Z,2.58
2022-08-17T04:03:36.036Z,2.92
2022-08-17T04:06:04.251Z,2.05
2022-08-17T04:08:32.898Z,2.70
2022-08-17T04:11:02.093Z,2.88
2022-08-17T04:13:30.257Z,2.50
2022-08-17T04:15:59.157Z,2.30
2022-08-17T04:18:28.577Z,2.10
2022-08-17T04:20:56.909Z,2.70
2022-08-17T04:23:32.564Z,2.20
2022-08-17T04:26:00.826Z,2.72
2022-08-17T04:28:29.926Z,2.22
2022-08-17T04:30:58.433Z,2.53
2022-08-17T04:33:29.447Z,2.70
2022-08-17T04:35:59.366Z,2.30
2022-08-17T04:38:29.027Z,1.65
2022-08-17T04:41:15.379Z,2.60
2022-08-17T04:43:44.830Z,2.28
2022-08-17T04:46:14.995Z,2.67
2022-08-17T04:48:45.919Z,2.38
2022-08-17T04:51:17.778Z,2.78
2022-08-17T04:53:53.822Z,2.63
2022-08-17T04:56:23.418Z,2.60
2022-08-17T04:58:54.256Z,2.47
2022-08-17T05:01:24.853Z,2.60
2022-08-17T05:03:56.445Z,2.83
2022-08-17T05:06:25.155Z,2.80
2022-08-17T05:08:53.981Z,2.47
2022-08-17T05:11:22.436Z,3.40
2022-08-17T05:13:50.999Z,2.28
2022-08-17T05:16:20.077Z,2.53
2022-08-17T05:18:48.253Z,2.25
2022-08-17T05:21:18.162Z,2.20
2022-08-17T05:23:53.908Z,2.72
2022-08-17T05:26:26.297Z,2.53
2022-08-17T05:29:00.335Z,2.92
2022-08-17T05:31:31.806Z,2.53
2022-08-17T05:34:00.118Z,2.17
2022-08-17T05:36:41.684Z,2.17
2022-08-17T05:39:15.781Z,2.95
2022-08-17T05:41:46.464Z,2.50
2022-08-17T05:46:46.675Z,2.45
2022-08-17T05:49:17.102Z,2.63
2022-08-17T05:52:18.903Z,2.97
2022-08-17T05:55:04.025Z,3.35
2022-08-17T05:57:47.512Z,2.78
2022-08-17T06:00:30.288Z,3.15
2022-08-17T06:03:20.275Z,3.60
2022-08-17T06:06:25.297Z,2.10
2022-08-17T06:09:13.018Z,2.97
2022-08-17T06:11:47.918Z,3.13
2022-08-17T06:14:36.547Z,3.03
2022-08-17T06:17:09.132Z,2.13
2022-08-17T06:19:41.869Z,2.40
2022-08-17T06:22:13.531Z,2.75
2022-08-17T06:24:46.689Z,3.10
2022-08-17T06:27:24.348Z,2.53
2022-08-17T06:29:58.647Z,3.25
2022-08-17T06:32:27.009Z,2.47
2022-08-17T06:34:55.229Z,2.95
2022-08-17T06:37:42.090Z,2.58
2022-08-17T06:40:32.716Z,2.63
2022-08-17T06:43:17.213Z,2.78
2022-08-17T06:45:50.034Z,3.15
2022-08-17T06:48:25.329Z,2.88
2022-08-17T06:50:59.909Z,2.55
2022-08-17T06:53:35.784Z,2.90
2022-08-17T06:56:08.619Z,2.97
2022-08-17T06:58:40.370Z,2.42
2022-08-17T07:01:11.562Z,2.58
2022-08-17T07:03:45.152Z,3.00
2022-08-17T07:06:16.768Z,2.17
2022-08-17T07:08:52.427Z,2.90
2022-08-17T07:11:27.199Z,2.10
2022-08-17T07:14:06.848Z,2.10
2022-08-17T07:16:42.057Z,2.60
2022-08-17T07:19:11.258Z,2.50
2022-08-17T07:21:50.136Z,2.42
2022-08-17T07:24:33.117Z,2.90
2022-08-17T07:27:15.207Z,2.30
2022-08-17T07:29:53.567Z,2.83
2022-08-17T07:32:26.332Z,2.70
2022-08-17T07:35:11.735Z,2.55
2022-08-17T07:37:41.806Z,2.75
2022-08-17T07:40:26.360Z,3.25
2022-08-17T07:43:03.323Z,3.05
2022-08-17T07:45:53.458Z,3.65
2022-08-17T07:48:24.294Z,3.42
2022-08-17T07:50:53.909Z,2.70
2022-08-17T07:53:25.563Z,3.35
2022-08-17T07:55:54.569Z,2.67
2022-08-17T07:58:24.424Z,3.03
2022-08-17T08:01:10.371Z,1.95
2022-08-17T08:03:43.503Z,2.65
2022-08-17T08:06:22.191Z,2.88
2022-08-17T08:08:53.603Z,2.50
2022-08-17T08:11:31.097Z,3.00
2022-08-17T08:14:21.651Z,2.45
2022-08-17T08:17:01.057Z,3.05
2022-08-17T08:19:31.074Z,2.20
2022-08-17T08:22:05.993Z,2.53
2022-08-17T08:24:52.766Z,2.72
2022-08-17T08:27:32.719Z,3.15
2022-08-17T08:30:07.584Z,2.25
2022-08-17T08:32:57.340Z,2.15
2022-08-17T08:35:32.347Z,2.40
2022-08-17T08:38:11.822Z,2.28
2022-08-17T08:40:55.682Z,2.30
2022-08-17T08:43:31.773Z,2.53
2022-08-17T08:46:11.328Z,2.15
2022-08-17T08:49:10.253Z,1.80
2022-08-17T08:51:48.629Z,1.92
2022-08-17T08:54:34.639Z,2.10
2022-08-17T08:57:29.176Z,1.42
2022-08-17T09:00:12.752Z,1.38
2022-08-17T09:03:09.403Z,1.83
2022-08-17T09:06:01.647Z,2.25
2022-08-17T09:08:36.511Z,1.83
2022-08-17T09:11:07.533Z,1.75
2022-08-17T09:13:46.221Z,1.98
2022-08-17T09:16:29.875Z,2.28
2022-08-17T09:19:05.364Z,1.63
2022-08-17T09:21:47.710Z,2.30
2022-08-17T09:24:24.790Z,1.92
2022-08-17T09:26:59.821Z,2.17
2022-08-17T09:29:35.082Z,2.17
2022-08-17T09:32:10.643Z,1.73
2022-08-17T09:34:44.544Z,1.50
2022-08-17T09:37:23.521Z,1.75
2022-08-17T09:39:59.152Z,1.45
2022-08-17T09:42:32.222Z,2.10
2022-08-17T09:45:22.885Z,1.85
2022-08-17T09:47:55.832Z,1.90
2022-08-17T09:50:55.278Z,1.52
2022-08-17T09:53:20.947Z,1.88
2022-08-17T09:56:04.052Z,2.00
2022-08-17T09:58:56.327Z,1.80
2022-08-17T10:01:31.332Z,1.80
2022-08-17T10:04:11.716Z,2.38
2022-08-17T10:06:50.915Z,1.65
2022-08-17T10:12:17.086Z,1.85
2022-08-17T10:14:58.539Z,2.22
2022-08-17T10:17:44.021Z,2.20
2022-08-17T10:20:17.301Z,1.48
2022-08-17T10:23:07.875Z,1.80
2022-08-17T10:26:02.666Z,1.73
2022-08-17T10:28:37.415Z,2.00
2022-08-17T10:31:33.794Z,2.30
2022-08-17T10:34:07.979Z,2.13
2022-08-17T10:36:48.227Z,2.30
2022-08-17T10:39:26.950Z,2.30
2022-08-17T10:42:00.582Z,2.00
2022-08-17T10:44:42.322Z,1.83
2022-08-17T10:47:13.691Z,3.15
2022-08-17T10:49:49.597Z,2.55
2022-08-17T10:52:51.962Z,2.40
2022-08-17T10:55:21.212Z,2.80
2022-08-17T10:57:54.738Z,2.67
2022-08-17T11:01:05.679Z,3.58
2022-08-17T11:03:34.191Z,2.38
2022-08-17T11:06:15.324Z,2.25
2022-08-17T11:09:07.942Z,2.80
2022-08-17T11:12:00.297Z,2.55
2022-08-17T11:14:49.451Z,2.45
2022-08-17T11:17:37.414Z,2.55
2022-08-17T11:20:24.731Z,2.55
2022-08-17T11:23:23.813Z,2.72
2022-08-17T11:25:54.459Z,2.40
2022-08-17T11:28:26.210Z,2.55
2022-08-17T11:30:58.973Z,1.73
2022-08-17T11:33:55.932Z,2.28
2022-08-17T11:36:38.526Z,2.30
2022-08-17T11:39:23.666Z,1.95
2022-08-17T11:42:01.799Z,1.70
2022-08-17T11:44:41.271Z,1.95
2022-08-17T11:47:36.438Z,2.25
2022-08-17T11:50:40.641Z,1.77
2022-08-17T11:53:47.501Z,1.55
2022-08-17T11:59:41.846Z,2.10
2022-08-17T12:02:35.259Z,1.10
2022-08-17T12:05:30.965Z,1.80
2022-08-17T12:08:21.235Z,1.70
2022-08-17T12:11:04.330Z,1.50
2022-08-17T12:13:40.034Z,1.77
2022-08-17T12:16:09.865Z,2.20
2022-08-17T12:18:41.859Z,1.33
2022-08-17T12:21:25.998Z,2.20
2022-08-17T12:24:00.846Z,1.60
2022-08-17T12:26:33.348Z,1.80
2022-08-17T12:29:03.639Z,1.83
2022-08-17T12:31:37.719Z,1.40
2022-08-17T12:34:15.699Z,1.55
2022-08-17T12:36:44.280Z,1.45
2022-08-17T12:39:14.011Z,2.00
2022-08-17T12:41:46.706Z,1.50
2022-08-17T12:44:17.457Z,1.70
2022-08-17T12:46:56.546Z,1.63
2022-08-17T12:52:04.368Z,1.63
2022-08-17T12:54:40.693Z,1.40
2022-08-17T12:57:13.996Z,1.60
2022-08-17T12:59:45.841Z,1.52
2022-08-17T13:02:23.303Z,1.80
2022-08-17T13:04:52.819Z,1.10
2022-08-17T13:07:29.524Z,1.52
2022-08-17T13:09:57.642Z,1.30
2022-08-17T13:12:31.797Z,1.67
2022-08-17T13:15:01.003Z,1.63
2022-08-17T13:20:00.610Z,1.50
2022-08-17T13:22:32.439Z,2.05
2022-08-17T13:25:05.403Z,1.70
2022-08-17T13:27:34.358Z,1.90
2022-08-17T13:30:06.621Z,1.65
2022-08-17T13:32:44.289Z,1.40
2022-08-17T13:35:42.906Z,1.63
2022-08-17T13:38:16.073Z,2.13
2022-08-17T13:40:50.056Z,1.05
2022-08-17T13:43:44.562Z,1.65
2022-08-17T13:46:19.568Z,1.38
2022-08-17T13:48:58.118Z,1.17
2022-08-17T13:51:31.217Z,1.30
2022-08-17T13:54:03.518Z,1.20
2022-08-17T13:56:39.581Z,1.38
2022-08-17T13:59:12.236Z,1.35
2022-08-17T14:01:42.788Z,1.38
2022-08-17T14:04:12.792Z,1.15
2022-08-17T14:06:54.174Z,1.80
2022-08-17T14:09:26.322Z,1.23
2022-08-17T14:11:56.315Z,1.00
2022-08-17T14:14:25.190Z,1.30
2022-08-17T14:16:54.449Z,1.50
2022-08-17T14:19:22.896Z,1.13
2022-08-17T14:21:56.391Z,1.55
2022-08-17T14:24:26.896Z,1.27
2022-08-17T14:26:55.352Z,1.42
2022-08-17T14:29:25.804Z,1.30
2022-08-17T14:31:54.794Z,1.73
2022-08-17T14:36:53.053Z,1.20
2022-08-17T14:39:21.851Z,1.05
2022-08-17T14:41:50.292Z,2.05
2022-08-17T14:44:18.281Z,1.40
2022-08-17T14:46:47.939Z,1.15
2022-08-17T14:49:17.058Z,1.05
2022-08-17T14:54:33.105Z,1.40
2022-08-17T14:57:23.341Z,1.83
2022-08-17T14:59:54.714Z,1.50
2022-08-17T15:02:30.363Z,1.10
2022-08-17T15:05:03.385Z,1.15
2022-08-17T15:07:31.838Z,1.23
2022-08-17T15:10:02.069Z,1.27
2022-08-17T15:12:33.545Z,1.50
2022-08-17T15:15:02.102Z,1.30
2022-08-17T15:17:44.375Z,1.30
2022-08-17T15:20:24.806Z,1.45
2022-08-17T15:22:55.040Z,1.25
2022-08-17T15:25:26.601Z,1.63
2022-08-17T15:27:55.424Z,1.48
2022-08-17T15:30:23.908Z,1.50
2022-08-17T15:32:54.930Z,1.25
2022-08-17T15:35:27.147Z,1.40
2022-08-17T15:37:56.030Z,1.38
2022-08-17T15:40:26.008Z,1.40
2022-08-17T15:42:54.370Z,1.42
2022-08-17T15:45:26.463Z,1.40
2022-08-17T15:47:54.827Z,1.33
2022-08-17T15:50:23.136Z,1.20
2022-08-17T15:52:58.155Z,1.40
2022-08-17T15:55:29.508Z,1.38
2022-08-17T15:57:57.628Z,1.35
2022-08-17T16:00:25.988Z,1.35
2022-08-17T16:03:45.128Z,1.17
2022-08-17T16:05:42.419Z,1.48
2022-08-17T16:08:11.144Z,1.17
2022-08-17T16:10:40.619Z,1.40
2022-08-17T16:13:17.615Z,1.25
2022-08-17T16:15:56.594Z,1.48
2022-08-17T16:18:30.875Z,1.17
2022-08-17T16:21:19.593Z,1.60
2022-08-17T16:23:47.722Z,1.80
2022-08-17T16:26:17.992Z,1.70
2022-08-17T16:28:46.565Z,1.60
2022-08-17T16:31:15.609Z,1.77
2022-08-17T16:36:32.770Z,1.45
2022-08-17T16:39:01.443Z,1.30
2022-08-17T16:41:46.185Z,1.45
2022-08-17T16:44:15.787Z,1.88
2022-08-17T16:46:45.516Z,1.75
2022-08-17T16:49:24.498Z,1.23
2022-08-17T16:52:03.941Z,1.63
2022-08-17T16:54:32.526Z,1.40
2022-08-17T16:57:03.948Z,1.50
2022-08-17T16:59:40.883Z,1.40
2022-08-17T17:02:14.807Z,1.52
2022-08-17T17:04:51.417Z,1.92
2022-08-17T17:07:41.210Z,1.55
2022-08-17T17:10:15.120Z,1.27
2022-08-17T17:13:04.010Z,1.60
2022-08-17T17:15:48.199Z,1.30
2022-08-17T17:18:17.037Z,1.52
2022-08-17T17:20:51.420Z,1.55
2022-08-17T17:23:35.983Z,2.00
2022-08-17T17:26:18.627Z,1.38
2022-08-17T17:29:02.660Z,1.70
2022-08-17T17:31:38.241Z,1.50
2022-08-17T17:34:11.249Z,1.60
2022-08-17T17:36:41.824Z,1.63
2022-08-17T17:39:14.126Z,1.30
2022-08-17T17:41:47.600Z,0.80
2022-08-17T17:44:20.812Z,1.20
2022-08-17T17:46:52.397Z,1.67
2022-08-17T17:49:20.578Z,1.38
2022-08-17T17:52:11.020Z,1.45
2022-08-17T17:54:53.965Z,1.48
2022-08-17T17:57:30.813Z,1.60
2022-08-17T18:00:09.119Z,1.50
2022-08-17T18:02:56.416Z,1.75
2022-08-17T18:05:40.340Z,1.30
2022-08-17T18:08:19.037Z,1.27
2022-08-17T18:10:54.715Z,1.42
2022-08-17T18:13:33.130Z,1.30
2022-08-17T18:16:04.747Z,1.87
2022-08-17T18:18:40.751Z,1.13
2022-08-17T18:21:15.694Z,1.00
2022-08-17T18:23:48.118Z,1.75
2022-08-17T18:26:36.476Z,1.38
2022-08-17T18:29:23.327Z,1.30
2022-08-17T18:32:13.549Z,1.27
2022-08-17T18:34:47.682Z,1.70
2022-08-17T18:37:42.598Z,1.60
2022-08-17T18:40:27.826Z,1.58
2022-08-17T18:43:23.364Z,1.60
2022-08-17T18:45:54.566Z,1.65
2022-08-17T18:48:29.148Z,1.63
2022-08-17T18:51:01.902Z,1.60
2022-08-17T18:53:38.181Z,1.73
2022-08-17T18:56:26.758Z,1.58
2022-08-17T18:59:03.470Z,1.57
2022-08-17T19:01:53.486Z,1.40
2022-08-17T19:04:37.042Z,2.35
2022-08-17T19:07:09.913Z,1.50
2022-08-17T19:09:43.536Z,1.60
2022-08-17T19:12:27.150Z,1.73
2022-08-17T19:14:57.546Z,1.95
2022-08-17T19:17:38.928Z,1.60
2022-08-17T19:20:15.372Z,1.00
2022-08-17T19:22:53.579Z,1.50
2022-08-17T19:25:27.269Z,1.20
2022-08-17T19:28:03.220Z,1.52
2022-08-17T19:30:32.047Z,1.35
2022-08-17T19:33:02.291Z,1.70
2022-08-17T19:35:43.471Z,1.48
2022-08-17T19:38:26.506Z,1.52
2022-08-17T19:41:06.438Z,1.38
2022-08-17T19:43:58.087Z,1.65
2022-08-17T19:47:00.753Z,1.42
2022-08-17T19:49:41.152Z,1.48
2022-08-17T19:52:36.264Z,1.42
2022-08-17T19:55:10.147Z,1.30
2022-08-17T19:57:48.675Z,1.70
2022-08-17T20:00:18.823Z,1.70
2022-08-17T20:02:58.684Z,1.40
2022-08-17T20:05:30.190Z,1.23
2022-08-17T20:08:05.359Z,1.40
2022-08-17T20:10:45.201Z,1.58
2022-08-17T20:13:33.217Z,1.20
2022-08-17T20:16:02.647Z,1.52
2022-08-17T20:18:37.709Z,1.63
2022-08-17T20:21:20.436Z,1.65
2022-08-17T20:23:55.165Z,1.40
2022-08-17T20:26:27.245Z,1.80
2022-08-17T20:29:39.779Z,1.63
2022-08-17T20:32:22.383Z,1.40
2022-08-17T20:35:04.186Z,1.50
2022-08-17T20:37:35.096Z,1.70
2022-08-17T20:40:20.472Z,1.80
2022-08-17T20:42:48.673Z,1.55
2022-08-17T20:45:59.408Z,1.60
2022-08-17T20:48:39.143Z,2.08
2022-08-17T20:51:18.889Z,1.30
2022-08-17T20:54:34.040Z,1.30
2022-08-17T20:57:13.770Z,1.58
2022-08-17T21:00:13.691Z,1.83
2022-08-17T21:02:44.300Z,1.65
2022-08-17T21:05:57.374Z,1.33
2022-08-17T21:08:31.668Z,1.63
2022-08-17T21:11:01.691Z,1.30
2022-08-17T21:14:05.012Z,1.58
2022-08-17T21:16:45.646Z,1.50
2022-08-17T21:19:30.957Z,1.55
2022-08-17T21:22:12.861Z,1.58
2022-08-17T21:24:53.451Z,1.60
2022-08-17T21:27:35.730Z,1.83
2022-08-17T21:30:40.180Z,1.38
2022-08-17T21:33:23.676Z,1.42
2022-08-17T21:35:54.134Z,1.70
2022-08-17T21:38:35.813Z,1.48
2022-08-17T21:41:03.933Z,1.45
2022-08-17T21:43:35.300Z,1.75
2022-08-17T21:46:09.298Z,1.73
2022-08-17T21:48:43.881Z,1.33
2022-08-17T21:51:19.016Z,1.50
2022-08-17T21:53:51.956Z,1.27
2022-08-17T21:56:26.297Z,1.65
2022-08-17T21:58:58.953Z,1.50
2022-08-17T22:01:31.543Z,1.48
2022-08-17T22:04:05.739Z,1.70
2022-08-17T22:06:39.011Z,1.40
2022-08-17T22:09:17.192Z,1.58
2022-08-17T22:11:59.281Z,1.65
2022-08-17T22:14:53.003Z,1.50
2022-08-17T22:17:23.696Z,1.70
2022-08-17T22:19:54.538Z,1.38
2022-08-17T22:22:55.703Z,1.80
2022-08-17T22:25:24.727Z,1.35
2022-08-17T22:27:56.520Z,1.50
2022-08-17T22:30:32.139Z,1.67
2022-08-17T22:33:03.343Z,1.02
2022-08-17T22:35:34.957Z,2.28
2022-08-17T22:38:32.152Z,1.55
2022-08-17T22:41:40.791Z,1.85
2022-08-17T22:44:17.191Z,1.60
2022-08-17T22:47:00.829Z,1.10
2022-08-17T22:49:36.512Z,1.58
2022-08-17T22:52:19.372Z,1.58
2022-08-17T22:55:09.421Z,1.45
2022-08-17T22:57:52.066Z,1.73
2022-08-17T23:00:33.410Z,1.25
2022-08-17T23:03:12.026Z,1.50
2022-08-17T23:05:44.854Z,1.50
2022-08-17T23:08:13.555Z,1.67
2022-08-17T23:10:42.671Z,1.90
2022-08-17T23:13:12.148Z,1.50
2022-08-17T23:15:41.584Z,1.80
2022-08-17T23:18:09.635Z,1.30
2022-08-17T23:20:40.044Z,1.58
2022-08-17T23:23:11.190Z,1.70
2022-08-17T23:25:39.629Z,1.48
2022-08-17T23:28:08.253Z,1.55
2022-08-17T23:30:42.074Z,1.85
2022-08-17T23:33:18.115Z,1.00
2022-08-17T23:35:46.256Z,1.67
2022-08-17T23:38:15.695Z,1.65
2022-08-17T23:43:24.801Z,1.42
2022-08-17T23:45:54.966Z,2.28
2022-08-17T23:48:32.703Z,1.65
2022-08-17T23:51:07.230Z,2.20
2022-08-17T23:53:37.709Z,1.42
2022-08-17T23:56:09.508Z,1.60
2022-08-17T23:58:39.084Z,1.80
